sensor_id;sensor_type;location;lat;lon;timestamp;P1;durP1;ratioP1;P2;durP2;ratioP2
6898;SDS011;3488;42.616;23.350;2023-07-13T00:02:02;3.50;;;3.30;;
6898;SDS011;3488;42.616;23.350;2023-07-13T00:04:30;3.25;;;2.95;;
6898;SDS011;3488;42.616;23.350;2023-07-13T00:06:57;3.65;;;3.35;;
6898;SDS011;3488;42.616;23.350;2023-07-13T00:09:26;2.78;;;2.60;;
6898;SDS011;3488;42.616;23.350;2023-07-13T00:11:54;2.92;;;2.83;;
6898;SDS011;3488;42.616;23.350;2023-07-13T00:14:22;3.05;;;2.85;;
6898;SDS011;3488;42.616;23.350;2023-07-13T00:16:50;3.90;;;3.55;;
6898;SDS011;3488;42.616;23.350;2023-07-13T00:19:17;4.18;;;3.10;;
6898;SDS011;3488;42.616;23.350;2023-07-13T00:21:46;3.33;;;3.03;;
6898;SDS011;3488;42.616;23.350;2023-07-13T00:24:14;3.45;;;3.13;;
6898;SDS011;3488;42.616;23.350;2023-07-13T00:26:49;6.05;;;3.42;;
6898;SDS011;3488;42.616;23.350;2023-07-13T00:29:17;3.17;;;2.97;;
6898;SDS011;3488;42.616;23.350;2023-07-13T00:31:44;5.18;;;3.28;;
6898;SDS011;3488;42.616;23.350;2023-07-13T00:34:11;3.83;;;3.53;;
6898;SDS011;3488;42.616;23.350;2023-07-13T00:36:38;4.03;;;3.63;;
6898;SDS011;3488;42.616;23.350;2023-07-13T00:39:05;3.72;;;3.30;;
6898;SDS011;3488;42.616;23.350;2023-07-13T00:41:33;3.60;;;3.38;;
6898;SDS011;3488;42.616;23.350;2023-07-13T00:44:03;4.07;;;3.78;;
6898;SDS011;3488;42.616;23.350;2023-07-13T00:46:31;3.90;;;3.60;;
6898;SDS011;3488;42.616;23.350;2023-07-13T00:49:01;3.50;;;3.30;;
6898;SDS011;3488;42.616;23.350;2023-07-13T00:51:32;3.90;;;3.60;;
6898;SDS011;3488;42.616;23.350;2023-07-13T00:54:05;4.65;;;3.55;;
6898;SDS011;3488;42.616;23.350;2023-07-13T00:56:36;5.53;;;4.20;;
6898;SDS011;3488;42.616;23.350;2023-07-13T00:59:07;6.68;;;3.83;;
6898;SDS011;3488;42.616;23.350;2023-07-13T01:01:36;3.95;;;3.58;;
6898;SDS011;3488;42.616;23.350;2023-07-13T01:04:04;3.40;;;3.20;;
6898;SDS011;3488;42.616;23.350;2023-07-13T01:06:33;3.47;;;3.17;;
6898;SDS011;3488;42.616;23.350;2023-07-13T01:09:02;4.25;;;3.38;;
6898;SDS011;3488;42.616;23.350;2023-07-13T01:11:30;3.80;;;3.55;;
6898;SDS011;3488;42.616;23.350;2023-07-13T01:13:57;3.65;;;3.35;;
6898;SDS011;3488;42.616;23.350;2023-07-13T01:16:28;4.30;;;3.65;;
6898;SDS011;3488;42.616;23.350;2023-07-13T01:18:57;4.10;;;3.80;;
6898;SDS011;3488;42.616;23.350;2023-07-13T01:21:28;7.85;;;3.08;;
6898;SDS011;3488;42.616;23.350;2023-07-13T01:23:56;3.85;;;3.55;;
6898;SDS011;3488;42.616;23.350;2023-07-13T01:26:24;6.60;;;3.55;;
6898;SDS011;3488;42.616;23.350;2023-07-13T01:28:52;4.00;;;3.63;;
6898;SDS011;3488;42.616;23.350;2023-07-13T01:31:21;4.53;;;4.22;;
6898;SDS011;3488;42.616;23.350;2023-07-13T01:33:48;3.80;;;3.50;;
6898;SDS011;3488;42.616;23.350;2023-07-13T01:36:15;3.72;;;3.42;;
6898;SDS011;3488;42.616;23.350;2023-07-13T01:38:44;8.88;;;4.25;;
6898;SDS011;3488;42.616;23.350;2023-07-13T01:41:11;4.70;;;4.40;;
6898;SDS011;3488;42.616;23.350;2023-07-13T01:43:38;4.72;;;4.05;;
6898;SDS011;3488;42.616;23.350;2023-07-13T01:46:05;4.13;;;3.80;;
6898;SDS011;3488;42.616;23.350;2023-07-13T01:48:32;3.67;;;3.47;;
6898;SDS011;3488;42.616;23.350;2023-07-13T01:51:00;4.30;;;3.90;;
6898;SDS011;3488;42.616;23.350;2023-07-13T01:53:27;4.35;;;4.00;;
6898;SDS011;3488;42.616;23.350;2023-07-13T01:55:56;5.88;;;3.80;;
6898;SDS011;3488;42.616;23.350;2023-07-13T01:58:23;3.92;;;3.70;;
6898;SDS011;3488;42.616;23.350;2023-07-13T02:00:51;4.38;;;4.07;;
6898;SDS011;3488;42.616;23.350;2023-07-13T02:03:18;4.13;;;3.83;;
6898;SDS011;3488;42.616;23.350;2023-07-13T02:05:45;8.13;;;3.78;;
6898;SDS011;3488;42.616;23.350;2023-07-13T02:08:13;4.97;;;4.57;;
6898;SDS011;3488;42.616;23.350;2023-07-13T02:10:40;4.72;;;4.35;;
6898;SDS011;3488;42.616;23.350;2023-07-13T02:13:09;4.80;;;4.28;;
6898;SDS011;3488;42.616;23.350;2023-07-13T02:15:40;4.43;;;4.03;;
6898;SDS011;3488;42.616;23.350;2023-07-13T02:18:07;4.20;;;3.90;;
6898;SDS011;3488;42.616;23.350;2023-07-13T02:20:34;4.57;;;4.10;;
6898;SDS011;3488;42.616;23.350;2023-07-13T02:23:02;4.43;;;4.10;;
6898;SDS011;3488;42.616;23.350;2023-07-13T02:25:29;4.22;;;3.95;;
6898;SDS011;3488;42.616;23.350;2023-07-13T02:27:57;5.00;;;4.45;;
6898;SDS011;3488;42.616;23.350;2023-07-13T02:30:26;4.15;;;3.85;;
6898;SDS011;3488;42.616;23.350;2023-07-13T02:32:55;5.50;;;4.57;;
6898;SDS011;3488;42.616;23.350;2023-07-13T02:35:22;4.75;;;4.18;;
6898;SDS011;3488;42.616;23.350;2023-07-13T02:37:49;5.03;;;4.00;;
6898;SDS011;3488;42.616;23.350;2023-07-13T02:40:17;5.70;;;4.38;;
6898;SDS011;3488;42.616;23.350;2023-07-13T02:42:44;4.25;;;3.95;;
6898;SDS011;3488;42.616;23.350;2023-07-13T02:45:11;4.95;;;4.45;;
6898;SDS011;3488;42.616;23.350;2023-07-13T02:47:41;9.00;;;4.18;;
6898;SDS011;3488;42.616;23.350;2023-07-13T02:50:08;4.00;;;3.78;;
6898;SDS011;3488;42.616;23.350;2023-07-13T02:52:35;5.95;;;4.25;;
6898;SDS011;3488;42.616;23.350;2023-07-13T02:55:03;4.95;;;4.47;;
6898;SDS011;3488;42.616;23.350;2023-07-13T02:57:31;4.30;;;3.97;;
6898;SDS011;3488;42.616;23.350;2023-07-13T02:59:59;9.68;;;5.20;;
6898;SDS011;3488;42.616;23.350;2023-07-13T03:02:26;5.57;;;4.15;;
6898;SDS011;3488;42.616;23.350;2023-07-13T03:04:55;4.78;;;4.32;;
6898;SDS011;3488;42.616;23.350;2023-07-13T03:07:23;4.40;;;3.97;;
6898;SDS011;3488;42.616;23.350;2023-07-13T03:09:53;4.30;;;4.00;;
6898;SDS011;3488;42.616;23.350;2023-07-13T03:12:22;6.43;;;4.07;;
6898;SDS011;3488;42.616;23.350;2023-07-13T03:14:49;5.47;;;4.57;;
6898;SDS011;3488;42.616;23.350;2023-07-13T03:17:16;5.88;;;4.65;;
6898;SDS011;3488;42.616;23.350;2023-07-13T03:19:44;4.60;;;4.18;;
6898;SDS011;3488;42.616;23.350;2023-07-13T03:22:16;6.63;;;4.18;;
6898;SDS011;3488;42.616;23.350;2023-07-13T03:24:44;5.75;;;4.78;;
6898;SDS011;3488;42.616;23.350;2023-07-13T03:27:12;5.35;;;4.68;;
6898;SDS011;3488;42.616;23.350;2023-07-13T03:29:39;5.60;;;5.10;;
6898;SDS011;3488;42.616;23.350;2023-07-13T03:32:06;5.80;;;5.28;;
6898;SDS011;3488;42.616;23.350;2023-07-13T03:34:34;6.38;;;5.57;;
6898;SDS011;3488;42.616;23.350;2023-07-13T03:37:01;7.78;;;4.72;;
6898;SDS011;3488;42.616;23.350;2023-07-13T03:39:31;7.55;;;5.03;;
6898;SDS011;3488;42.616;23.350;2023-07-13T03:41:58;6.35;;;5.65;;
6898;SDS011;3488;42.616;23.350;2023-07-13T03:44:26;7.00;;;5.32;;
6898;SDS011;3488;42.616;23.350;2023-07-13T03:46:53;10.30;;;5.03;;
6898;SDS011;3488;42.616;23.350;2023-07-13T03:49:20;7.90;;;5.13;;
6898;SDS011;3488;42.616;23.350;2023-07-13T03:51:47;11.02;;;7.03;;
6898;SDS011;3488;42.616;23.350;2023-07-13T03:54:15;5.95;;;5.18;;
6898;SDS011;3488;42.616;23.350;2023-07-13T03:56:44;5.63;;;4.68;;
6898;SDS011;3488;42.616;23.350;2023-07-13T03:59:11;5.63;;;5.13;;
6898;SDS011;3488;42.616;23.350;2023-07-13T04:01:38;5.00;;;4.70;;
6898;SDS011;3488;42.616;23.350;2023-07-13T04:04:06;6.95;;;4.82;;
6898;SDS011;3488;42.616;23.350;2023-07-13T04:06:33;4.82;;;4.45;;
6898;SDS011;3488;42.616;23.350;2023-07-13T04:09:00;8.50;;;5.80;;
6898;SDS011;3488;42.616;23.350;2023-07-13T04:11:31;5.55;;;5.15;;
6898;SDS011;3488;42.616;23.350;2023-07-13T04:14:00;11.50;;;5.85;;
6898;SDS011;3488;42.616;23.350;2023-07-13T04:16:27;6.18;;;5.57;;
6898;SDS011;3488;42.616;23.350;2023-07-13T04:18:55;7.25;;;5.82;;
6898;SDS011;3488;42.616;23.350;2023-07-13T04:21:24;5.13;;;4.65;;
6898;SDS011;3488;42.616;23.350;2023-07-13T04:23:52;5.40;;;4.85;;
6898;SDS011;3488;42.616;23.350;2023-07-13T04:26:19;6.80;;;4.97;;
6898;SDS011;3488;42.616;23.350;2023-07-13T04:28:47;5.55;;;5.05;;
6898;SDS011;3488;42.616;23.350;2023-07-13T04:31:16;6.32;;;5.78;;
6898;SDS011;3488;42.616;23.350;2023-07-13T04:33:44;5.50;;;5.00;;
6898;SDS011;3488;42.616;23.350;2023-07-13T04:36:11;7.28;;;5.35;;
6898;SDS011;3488;42.616;23.350;2023-07-13T04:38:38;5.93;;;5.32;;
6898;SDS011;3488;42.616;23.350;2023-07-13T04:41:06;6.13;;;5.63;;
6898;SDS011;3488;42.616;23.350;2023-07-13T04:43:34;6.60;;;6.00;;
6898;SDS011;3488;42.616;23.350;2023-07-13T04:46:03;9.93;;;6.07;;
6898;SDS011;3488;42.616;23.350;2023-07-13T04:48:32;9.13;;;7.18;;
6898;SDS011;3488;42.616;23.350;2023-07-13T04:51:00;10.88;;;5.80;;
6898;SDS011;3488;42.616;23.350;2023-07-13T04:53:29;9.00;;;6.30;;
6898;SDS011;3488;42.616;23.350;2023-07-13T04:55:57;9.70;;;6.00;;
6898;SDS011;3488;42.616;23.350;2023-07-13T04:58:25;9.65;;;6.00;;
6898;SDS011;3488;42.616;23.350;2023-07-13T05:00:52;10.93;;;6.30;;
6898;SDS011;3488;42.616;23.350;2023-07-13T05:03:20;9.52;;;7.35;;
6898;SDS011;3488;42.616;23.350;2023-07-13T05:05:56;8.40;;;7.55;;
6898;SDS011;3488;42.616;23.350;2023-07-13T05:08:24;14.75;;;7.95;;
6898;SDS011;3488;42.616;23.350;2023-07-13T05:10:51;10.93;;;6.97;;
6898;SDS011;3488;42.616;23.350;2023-07-13T05:13:18;11.43;;;8.77;;
6898;SDS011;3488;42.616;23.350;2023-07-13T05:15:47;14.68;;;8.50;;
6898;SDS011;3488;42.616;23.350;2023-07-13T05:18:21;11.45;;;7.25;;
6898;SDS011;3488;42.616;23.350;2023-07-13T05:20:56;10.30;;;7.55;;
6898;SDS011;3488;42.616;23.350;2023-07-13T05:23:24;11.00;;;8.25;;
6898;SDS011;3488;42.616;23.350;2023-07-13T05:25:52;10.13;;;7.72;;
6898;SDS011;3488;42.616;23.350;2023-07-13T05:28:19;8.68;;;7.80;;
6898;SDS011;3488;42.616;23.350;2023-07-13T05:30:46;11.02;;;7.35;;
6898;SDS011;3488;42.616;23.350;2023-07-13T05:33:14;9.70;;;7.20;;
6898;SDS011;3488;42.616;23.350;2023-07-13T05:35:42;12.05;;;8.60;;
6898;SDS011;3488;42.616;23.350;2023-07-13T05:38:11;13.27;;;8.43;;
6898;SDS011;3488;42.616;23.350;2023-07-13T05:40:38;10.20;;;7.53;;
6898;SDS011;3488;42.616;23.350;2023-07-13T05:43:05;16.00;;;8.25;;
6898;SDS011;3488;42.616;23.350;2023-07-13T05:45:33;13.73;;;8.85;;
6898;SDS011;3488;42.616;23.350;2023-07-13T05:48:00;19.38;;;8.88;;
6898;SDS011;3488;42.616;23.350;2023-07-13T05:50:28;11.13;;;9.35;;
6898;SDS011;3488;42.616;23.350;2023-07-13T05:52:55;15.23;;;8.70;;
6898;SDS011;3488;42.616;23.350;2023-07-13T05:55:23;14.63;;;7.88;;
6898;SDS011;3488;42.616;23.350;2023-07-13T05:57:51;12.45;;;8.27;;
6898;SDS011;3488;42.616;23.350;2023-07-13T06:00:18;13.75;;;7.68;;
6898;SDS011;3488;42.616;23.350;2023-07-13T06:02:45;9.38;;;8.02;;
6898;SDS011;3488;42.616;23.350;2023-07-13T06:05:12;10.45;;;7.45;;
6898;SDS011;3488;42.616;23.350;2023-07-13T06:07:40;15.55;;;7.70;;
6898;SDS011;3488;42.616;23.350;2023-07-13T06:10:07;10.88;;;8.23;;
6898;SDS011;3488;42.616;23.350;2023-07-13T06:12:37;9.85;;;7.22;;
6898;SDS011;3488;42.616;23.350;2023-07-13T06:15:04;10.13;;;7.78;;
6898;SDS011;3488;42.616;23.350;2023-07-13T06:17:32;17.15;;;8.10;;
6898;SDS011;3488;42.616;23.350;2023-07-13T06:19:59;13.70;;;8.10;;
6898;SDS011;3488;42.616;23.350;2023-07-13T06:22:27;12.50;;;7.72;;
6898;SDS011;3488;42.616;23.350;2023-07-13T06:24:53;11.25;;;7.28;;
6898;SDS011;3488;42.616;23.350;2023-07-13T06:27:21;17.33;;;8.20;;
6898;SDS011;3488;42.616;23.350;2023-07-13T06:29:49;18.40;;;8.05;;
6898;SDS011;3488;42.616;23.350;2023-07-13T06:32:16;10.60;;;7.82;;
6898;SDS011;3488;42.616;23.350;2023-07-13T06:34:43;15.70;;;7.60;;
6898;SDS011;3488;42.616;23.350;2023-07-13T06:37:11;9.93;;;7.53;;
6898;SDS011;3488;42.616;23.350;2023-07-13T06:39:38;11.40;;;7.50;;
6898;SDS011;3488;42.616;23.350;2023-07-13T06:42:06;9.43;;;7.25;;
6898;SDS011;3488;42.616;23.350;2023-07-13T06:44:33;10.40;;;7.65;;
6898;SDS011;3488;42.616;23.350;2023-07-13T06:47:02;8.88;;;7.47;;
6898;SDS011;3488;42.616;23.350;2023-07-13T06:49:29;9.02;;;7.93;;
6898;SDS011;3488;42.616;23.350;2023-07-13T06:51:58;12.10;;;7.75;;
6898;SDS011;3488;42.616;23.350;2023-07-13T06:54:25;9.35;;;7.60;;
6898;SDS011;3488;42.616;23.350;2023-07-13T06:56:53;12.38;;;7.72;;
6898;SDS011;3488;42.616;23.350;2023-07-13T06:59:20;12.98;;;7.07;;
6898;SDS011;3488;42.616;23.350;2023-07-13T07:01:48;14.40;;;6.85;;
6898;SDS011;3488;42.616;23.350;2023-07-13T07:04:16;10.80;;;7.82;;
6898;SDS011;3488;42.616;23.350;2023-07-13T07:06:43;10.07;;;7.30;;
6898;SDS011;3488;42.616;23.350;2023-07-13T07:09:11;9.88;;;7.68;;
6898;SDS011;3488;42.616;23.350;2023-07-13T07:11:38;11.82;;;7.07;;
6898;SDS011;3488;42.616;23.350;2023-07-13T07:14:05;8.82;;;6.75;;
6898;SDS011;3488;42.616;23.350;2023-07-13T07:16:34;8.48;;;7.28;;
6898;SDS011;3488;42.616;23.350;2023-07-13T07:19:02;7.57;;;6.97;;
6898;SDS011;3488;42.616;23.350;2023-07-13T07:21:30;11.73;;;6.57;;
6898;SDS011;3488;42.616;23.350;2023-07-13T07:23:58;8.30;;;6.93;;
6898;SDS011;3488;42.616;23.350;2023-07-13T07:26:28;8.07;;;6.80;;
6898;SDS011;3488;42.616;23.350;2023-07-13T07:28:55;7.63;;;6.93;;
6898;SDS011;3488;42.616;23.350;2023-07-13T07:31:23;7.35;;;6.65;;
6898;SDS011;3488;42.616;23.350;2023-07-13T07:33:50;6.55;;;6.03;;
6898;SDS011;3488;42.616;23.350;2023-07-13T07:36:19;9.00;;;7.03;;
6898;SDS011;3488;42.616;23.350;2023-07-13T07:38:48;7.88;;;6.63;;
6898;SDS011;3488;42.616;23.350;2023-07-13T07:41:17;7.53;;;6.75;;
6898;SDS011;3488;42.616;23.350;2023-07-13T07:43:44;7.43;;;6.72;;
6898;SDS011;3488;42.616;23.350;2023-07-13T07:46:11;9.10;;;7.38;;
6898;SDS011;3488;42.616;23.350;2023-07-13T07:48:39;9.75;;;7.10;;
6898;SDS011;3488;42.616;23.350;2023-07-13T07:51:06;12.93;;;7.47;;
6898;SDS011;3488;42.616;23.350;2023-07-13T07:53:33;9.05;;;7.15;;
6898;SDS011;3488;42.616;23.350;2023-07-13T07:56:03;7.22;;;6.55;;
6898;SDS011;3488;42.616;23.350;2023-07-13T07:58:31;9.23;;;7.03;;
6898;SDS011;3488;42.616;23.350;2023-07-13T08:01:02;11.57;;;6.95;;
6898;SDS011;3488;42.616;23.350;2023-07-13T08:03:31;9.25;;;7.70;;
6898;SDS011;3488;42.616;23.350;2023-07-13T08:05:58;7.28;;;6.60;;
6898;SDS011;3488;42.616;23.350;2023-07-13T08:08:25;9.48;;;7.20;;
6898;SDS011;3488;42.616;23.350;2023-07-13T08:10:52;11.05;;;6.75;;
6898;SDS011;3488;42.616;23.350;2023-07-13T08:13:21;9.93;;;6.75;;
6898;SDS011;3488;42.616;23.350;2023-07-13T08:15:48;7.57;;;6.72;;
6898;SDS011;3488;42.616;23.350;2023-07-13T08:18:15;8.18;;;7.32;;
6898;SDS011;3488;42.616;23.350;2023-07-13T08:20:43;7.45;;;6.68;;
6898;SDS011;3488;42.616;23.350;2023-07-13T08:23:10;7.43;;;6.82;;
6898;SDS011;3488;42.616;23.350;2023-07-13T08:25:38;7.15;;;6.65;;
6898;SDS011;3488;42.616;23.350;2023-07-13T08:28:05;8.60;;;7.70;;
6898;SDS011;3488;42.616;23.350;2023-07-13T08:30:34;12.20;;;7.43;;
6898;SDS011;3488;42.616;23.350;2023-07-13T08:33:02;9.18;;;7.13;;
6898;SDS011;3488;42.616;23.350;2023-07-13T08:35:30;9.50;;;7.53;;
6898;SDS011;3488;42.616;23.350;2023-07-13T08:37:58;8.48;;;7.03;;
6898;SDS011;3488;42.616;23.350;2023-07-13T08:40:26;9.48;;;7.82;;
6898;SDS011;3488;42.616;23.350;2023-07-13T08:42:54;9.85;;;7.55;;
6898;SDS011;3488;42.616;23.350;2023-07-13T08:45:26;10.18;;;7.45;;
6898;SDS011;3488;42.616;23.350;2023-07-13T08:48:04;7.93;;;7.32;;
6898;SDS011;3488;42.616;23.350;2023-07-13T08:50:39;9.18;;;7.50;;
6898;SDS011;3488;42.616;23.350;2023-07-13T08:53:15;7.57;;;6.90;;
6898;SDS011;3488;42.616;23.350;2023-07-13T08:55:43;9.23;;;7.50;;
6898;SDS011;3488;42.616;23.350;2023-07-13T08:58:11;8.13;;;7.53;;
6898;SDS011;3488;42.616;23.350;2023-07-13T09:00:44;7.25;;;6.68;;
6898;SDS011;3488;42.616;23.350;2023-07-13T09:03:20;12.48;;;7.15;;
6898;SDS011;3488;42.616;23.350;2023-07-13T09:05:51;10.43;;;7.50;;
6898;SDS011;3488;42.616;23.350;2023-07-13T09:08:36;7.70;;;7.00;;
6898;SDS011;3488;42.616;23.350;2023-07-13T09:11:20;6.82;;;6.18;;
6898;SDS011;3488;42.616;23.350;2023-07-13T09:13:56;8.70;;;7.03;;
6898;SDS011;3488;42.616;23.350;2023-07-13T09:16:32;8.85;;;7.88;;
6898;SDS011;3488;42.616;23.350;2023-07-13T09:19:04;7.13;;;6.53;;
6898;SDS011;3488;42.616;23.350;2023-07-13T09:21:35;7.90;;;7.05;;
6898;SDS011;3488;42.616;23.350;2023-07-13T09:24:21;9.38;;;7.07;;
6898;SDS011;3488;42.616;23.350;2023-07-13T09:26:55;9.35;;;7.15;;
6898;SDS011;3488;42.616;23.350;2023-07-13T09:29:23;9.00;;;7.03;;
6898;SDS011;3488;42.616;23.350;2023-07-13T09:31:55;7.65;;;7.05;;
6898;SDS011;3488;42.616;23.350;2023-07-13T09:34:29;6.72;;;6.13;;
6898;SDS011;3488;42.616;23.350;2023-07-13T09:36:58;9.35;;;6.82;;
6898;SDS011;3488;42.616;23.350;2023-07-13T09:39:26;7.18;;;6.57;;
6898;SDS011;3488;42.616;23.350;2023-07-13T09:41:57;10.50;;;7.40;;
6898;SDS011;3488;42.616;23.350;2023-07-13T09:44:33;7.43;;;6.78;;
6898;SDS011;3488;42.616;23.350;2023-07-13T09:47:13;6.50;;;5.90;;
6898;SDS011;3488;42.616;23.350;2023-07-13T09:49:45;9.82;;;6.38;;
6898;SDS011;3488;42.616;23.350;2023-07-13T09:52:14;7.43;;;6.93;;
6898;SDS011;3488;42.616;23.350;2023-07-13T09:54:44;7.68;;;6.78;;
6898;SDS011;3488;42.616;23.350;2023-07-13T09:57:14;10.63;;;6.75;;
6898;SDS011;3488;42.616;23.350;2023-07-13T09:59:43;12.00;;;6.63;;
6898;SDS011;3488;42.616;23.350;2023-07-13T10:02:25;7.78;;;6.75;;
6898;SDS011;3488;42.616;23.350;2023-07-13T10:04:57;8.95;;;6.88;;
6898;SDS011;3488;42.616;23.350;2023-07-13T10:07:27;11.75;;;8.35;;
6898;SDS011;3488;42.616;23.350;2023-07-13T10:09:55;7.90;;;7.15;;
6898;SDS011;3488;42.616;23.350;2023-07-13T10:12:26;10.60;;;7.38;;
6898;SDS011;3488;42.616;23.350;2023-07-13T10:14:55;9.60;;;7.18;;
6898;SDS011;3488;42.616;23.350;2023-07-13T10:17:27;11.82;;;7.50;;
6898;SDS011;3488;42.616;23.350;2023-07-13T10:20:01;8.38;;;7.57;;
6898;SDS011;3488;42.616;23.350;2023-07-13T10:22:33;9.93;;;6.95;;
6898;SDS011;3488;42.616;23.350;2023-07-13T10:25:13;11.15;;;6.93;;
6898;SDS011;3488;42.616;23.350;2023-07-13T10:27:43;7.75;;;6.75;;
6898;SDS011;3488;42.616;23.350;2023-07-13T10:30:13;8.73;;;8.00;;
6898;SDS011;3488;42.616;23.350;2023-07-13T10:32:45;9.73;;;7.07;;
6898;SDS011;3488;42.616;23.350;2023-07-13T10:35:15;12.10;;;7.07;;
6898;SDS011;3488;42.616;23.350;2023-07-13T10:37:45;7.85;;;7.22;;
6898;SDS011;3488;42.616;23.350;2023-07-13T10:40:18;11.05;;;6.97;;
6898;SDS011;3488;42.616;23.350;2023-07-13T10:42:51;10.18;;;7.38;;
6898;SDS011;3488;42.616;23.350;2023-07-13T10:45:22;9.85;;;7.43;;
6898;SDS011;3488;42.616;23.350;2023-07-13T10:47:51;9.68;;;7.28;;
6898;SDS011;3488;42.616;23.350;2023-07-13T10:50:23;8.15;;;7.35;;
6898;SDS011;3488;42.616;23.350;2023-07-13T10:52:52;10.35;;;7.45;;
6898;SDS011;3488;42.616;23.350;2023-07-13T10:55:36;11.38;;;7.80;;
6898;SDS011;3488;42.616;23.350;2023-07-13T10:58:12;7.43;;;6.82;;
6898;SDS011;3488;42.616;23.350;2023-07-13T11:00:49;10.88;;;6.88;;
6898;SDS011;3488;42.616;23.350;2023-07-13T11:03:20;8.55;;;7.50;;
6898;SDS011;3488;42.616;23.350;2023-07-13T11:06:03;8.68;;;7.20;;
6898;SDS011;3488;42.616;23.350;2023-07-13T11:08:34;7.72;;;7.10;;
6898;SDS011;3488;42.616;23.350;2023-07-13T11:11:04;11.02;;;8.02;;
6898;SDS011;3488;42.616;23.350;2023-07-13T11:14:04;11.00;;;7.60;;
6898;SDS011;3488;42.616;23.350;2023-07-13T11:16:51;9.88;;;6.47;;
6898;SDS011;3488;42.616;23.350;2023-07-13T11:19:37;10.27;;;7.07;;
6898;SDS011;3488;42.616;23.350;2023-07-13T11:24:54;12.80;;;7.10;;
6898;SDS011;3488;42.616;23.350;2023-07-13T11:27:33;7.40;;;6.70;;
6898;SDS011;3488;42.616;23.350;2023-07-13T11:30:07;10.80;;;6.93;;
6898;SDS011;3488;42.616;23.350;2023-07-13T11:32:44;8.68;;;6.72;;
6898;SDS011;3488;42.616;23.350;2023-07-13T11:35:18;7.50;;;6.05;;
6898;SDS011;3488;42.616;23.350;2023-07-13T11:37:49;7.90;;;7.10;;
6898;SDS011;3488;42.616;23.350;2023-07-13T11:40:17;8.93;;;6.93;;
6898;SDS011;3488;42.616;23.350;2023-07-13T11:42:47;9.95;;;6.85;;
6898;SDS011;3488;42.616;23.350;2023-07-13T11:45:18;7.78;;;6.97;;
6898;SDS011;3488;42.616;23.350;2023-07-13T11:47:48;8.07;;;6.53;;
6898;SDS011;3488;42.616;23.350;2023-07-13T11:50:19;7.20;;;6.50;;
6898;SDS011;3488;42.616;23.350;2023-07-13T11:52:48;6.75;;;5.85;;
6898;SDS011;3488;42.616;23.350;2023-07-13T11:55:19;11.95;;;6.95;;
6898;SDS011;3488;42.616;23.350;2023-07-13T11:57:51;8.05;;;6.20;;
6898;SDS011;3488;42.616;23.350;2023-07-13T12:00:26;7.40;;;6.50;;
6898;SDS011;3488;42.616;23.350;2023-07-13T12:02:57;12.43;;;5.88;;
6898;SDS011;3488;42.616;23.350;2023-07-13T12:05:27;10.05;;;6.70;;
6898;SDS011;3488;42.616;23.350;2023-07-13T12:07:57;6.53;;;5.97;;
6898;SDS011;3488;42.616;23.350;2023-07-13T12:10:25;9.32;;;6.10;;
6898;SDS011;3488;42.616;23.350;2023-07-13T12:12:56;10.05;;;6.03;;
6898;SDS011;3488;42.616;23.350;2023-07-13T12:15:29;12.05;;;6.70;;
6898;SDS011;3488;42.616;23.350;2023-07-13T12:18:09;6.10;;;5.43;;
6898;SDS011;3488;42.616;23.350;2023-07-13T12:20:40;13.88;;;6.57;;
6898;SDS011;3488;42.616;23.350;2023-07-13T12:23:10;6.63;;;5.63;;
6898;SDS011;3488;42.616;23.350;2023-07-13T12:25:48;7.15;;;6.43;;
6898;SDS011;3488;42.616;23.350;2023-07-13T12:28:23;9.18;;;6.07;;
6898;SDS011;3488;42.616;23.350;2023-07-13T12:30:59;7.70;;;6.25;;
6898;SDS011;3488;42.616;23.350;2023-07-13T12:33:27;6.95;;;6.13;;
6898;SDS011;3488;42.616;23.350;2023-07-13T12:35:56;7.70;;;6.13;;
6898;SDS011;3488;42.616;23.350;2023-07-13T12:38:24;8.00;;;6.03;;
6898;SDS011;3488;42.616;23.350;2023-07-13T12:40:51;9.23;;;6.30;;
6898;SDS011;3488;42.616;23.350;2023-07-13T12:43:19;7.43;;;6.72;;
6898;SDS011;3488;42.616;23.350;2023-07-13T12:45:59;10.55;;;6.32;;
6898;SDS011;3488;42.616;23.350;2023-07-13T12:48:27;7.53;;;6.20;;
6898;SDS011;3488;42.616;23.350;2023-07-13T12:50:55;8.25;;;5.60;;
6898;SDS011;3488;42.616;23.350;2023-07-13T12:53:28;9.88;;;5.85;;
6898;SDS011;3488;42.616;23.350;2023-07-13T12:56:02;8.20;;;5.55;;
6898;SDS011;3488;42.616;23.350;2023-07-13T12:58:31;7.72;;;6.20;;
6898;SDS011;3488;42.616;23.350;2023-07-13T13:01:05;6.50;;;5.68;;
6898;SDS011;3488;42.616;23.350;2023-07-13T13:03:34;8.70;;;6.05;;
6898;SDS011;3488;42.616;23.350;2023-07-13T13:06:17;13.45;;;5.78;;
6898;SDS011;3488;42.616;23.350;2023-07-13T13:08:49;11.13;;;7.30;;
6898;SDS011;3488;42.616;23.350;2023-07-13T13:11:18;9.98;;;5.95;;
6898;SDS011;3488;42.616;23.350;2023-07-13T13:13:48;7.15;;;6.38;;
6898;SDS011;3488;42.616;23.350;2023-07-13T13:16:18;7.47;;;6.75;;
6898;SDS011;3488;42.616;23.350;2023-07-13T13:18:48;10.52;;;6.47;;
6898;SDS011;3488;42.616;23.350;2023-07-13T13:21:16;6.15;;;5.63;;
6898;SDS011;3488;42.616;23.350;2023-07-13T13:23:44;19.10;;;6.75;;
6898;SDS011;3488;42.616;23.350;2023-07-13T13:26:12;6.63;;;5.70;;
6898;SDS011;3488;42.616;23.350;2023-07-13T13:28:41;9.40;;;5.95;;
6898;SDS011;3488;42.616;23.350;2023-07-13T13:31:09;7.32;;;6.63;;
6898;SDS011;3488;42.616;23.350;2023-07-13T13:33:39;8.52;;;6.13;;
6898;SDS011;3488;42.616;23.350;2023-07-13T13:36:12;7.03;;;6.32;;
6898;SDS011;3488;42.616;23.350;2023-07-13T13:38:42;7.55;;;6.43;;
6898;SDS011;3488;42.616;23.350;2023-07-13T13:41:09;13.27;;;6.28;;
6898;SDS011;3488;42.616;23.350;2023-07-13T13:43:39;8.02;;;6.15;;
6898;SDS011;3488;42.616;23.350;2023-07-13T13:46:11;9.55;;;6.25;;
6898;SDS011;3488;42.616;23.350;2023-07-13T13:48:43;11.13;;;6.10;;
6898;SDS011;3488;42.616;23.350;2023-07-13T13:51:13;8.60;;;6.40;;
6898;SDS011;3488;42.616;23.350;2023-07-13T13:53:42;7.72;;;6.55;;
6898;SDS011;3488;42.616;23.350;2023-07-13T13:56:10;8.63;;;6.10;;
6898;SDS011;3488;42.616;23.350;2023-07-13T13:58:38;6.55;;;5.88;;
6898;SDS011;3488;42.616;23.350;2023-07-13T14:01:08;11.70;;;6.07;;
6898;SDS011;3488;42.616;23.350;2023-07-13T14:03:39;7.97;;;5.80;;
6898;SDS011;3488;42.616;23.350;2023-07-13T14:06:09;11.57;;;6.03;;
6898;SDS011;3488;42.616;23.350;2023-07-13T14:08:39;13.23;;;6.45;;
6898;SDS011;3488;42.616;23.350;2023-07-13T14:11:07;6.22;;;5.55;;
6898;SDS011;3488;42.616;23.350;2023-07-13T14:13:39;11.40;;;6.13;;
6898;SDS011;3488;42.616;23.350;2023-07-13T14:16:10;10.27;;;6.07;;
6898;SDS011;3488;42.616;23.350;2023-07-13T14:18:40;9.68;;;6.35;;
6898;SDS011;3488;42.616;23.350;2023-07-13T14:21:12;10.95;;;5.90;;
6898;SDS011;3488;42.616;23.350;2023-07-13T14:23:40;7.18;;;5.75;;
6898;SDS011;3488;42.616;23.350;2023-07-13T14:26:11;7.75;;;5.93;;
6898;SDS011;3488;42.616;23.350;2023-07-13T14:28:41;5.97;;;5.45;;
6898;SDS011;3488;42.616;23.350;2023-07-13T14:31:10;13.13;;;6.30;;
6898;SDS011;3488;42.616;23.350;2023-07-13T14:33:38;9.93;;;6.07;;
6898;SDS011;3488;42.616;23.350;2023-07-13T14:36:09;12.43;;;6.28;;
6898;SDS011;3488;42.616;23.350;2023-07-13T14:38:58;11.88;;;6.28;;
6898;SDS011;3488;42.616;23.350;2023-07-13T14:41:27;11.25;;;6.47;;
6898;SDS011;3488;42.616;23.350;2023-07-13T14:43:54;7.88;;;6.35;;
6898;SDS011;3488;42.616;23.350;2023-07-13T14:46:24;14.32;;;6.30;;
6898;SDS011;3488;42.616;23.350;2023-07-13T14:48:59;8.82;;;5.95;;
6898;SDS011;3488;42.616;23.350;2023-07-13T14:51:31;6.68;;;6.03;;
6898;SDS011;3488;42.616;23.350;2023-07-13T14:54:02;6.88;;;5.57;;
6898;SDS011;3488;42.616;23.350;2023-07-13T14:56:30;7.55;;;6.13;;
6898;SDS011;3488;42.616;23.350;2023-07-13T14:58:57;10.30;;;6.25;;
6898;SDS011;3488;42.616;23.350;2023-07-13T15:01:24;10.57;;;6.10;;
6898;SDS011;3488;42.616;23.350;2023-07-13T15:03:52;7.47;;;5.35;;
6898;SDS011;3488;42.616;23.350;2023-07-13T15:06:19;9.38;;;5.63;;
6898;SDS011;3488;42.616;23.350;2023-07-13T15:08:48;8.00;;;6.13;;
6898;SDS011;3488;42.616;23.350;2023-07-13T15:11:15;7.43;;;4.95;;
6898;SDS011;3488;42.616;23.350;2023-07-13T15:13:43;6.97;;;6.25;;
6898;SDS011;3488;42.616;23.350;2023-07-13T15:16:14;6.53;;;5.72;;